sensor_id;sensor_type;location;lat;lon;timestamp;pressure;altitude;pressure_sealevel;temperature;humidity
40708;BME280;26392;42.696;23.350;2023-06-04T00:01:19;95474.34;;;17.07;100.00
40708;BME280;26392;42.696;23.350;2023-06-04T00:03:44;95449.75;;;16.92;100.00
40708;BME280;26392;42.696;23.350;2023-06-04T00:06:10;95454.53;;;16.81;100.00
40708;BME280;26392;42.696;23.350;2023-06-04T00:08:35;95459.91;;;16.91;100.00
40708;BME280;26392;42.696;23.350;2023-06-04T00:11:00;95470.59;;;16.98;100.00
40708;BME280;26392;42.696;23.350;2023-06-04T00:13:26;95465.69;;;16.95;100.00
40708;BME280;26392;42.696;23.350;2023-06-04T00:15:51;95465.97;;;16.93;100.00
40708;BME280;26392;42.696;23.350;2023-06-04T00:18:17;95465.16;;;16.93;100.00
40708;BME280;26392;42.696;23.350;2023-06-04T00:20:42;95470.66;;;16.93;100.00
40708;BME280;26392;42.696;23.350;2023-06-04T00:23:07;95455.84;;;16.89;100.00
40708;BME280;26392;42.696;23.350;2023-06-04T00:25:33;95464.91;;;16.89;100.00
40708;BME280;26392;42.696;23.350;2023-06-04T00:27:58;95459.69;;;16.88;100.00
40708;BME280;26392;42.696;23.350;2023-06-04T00:30:23;95457.88;;;16.78;100.00
40708;BME280;26392;42.696;23.350;2023-06-04T00:32:49;95460.16;;;16.66;100.00
40708;BME280;26392;42.696;23.350;2023-06-04T00:35:14;95457.53;;;16.55;100.00
40708;BME280;26392;42.696;23.350;2023-06-04T00:37:40;95447.16;;;16.47;100.00
40708;BME280;26392;42.696;23.350;2023-06-04T00:40:06;95451.38;;;16.64;100.00
40708;BME280;26392;42.696;23.350;2023-06-04T00:42:32;95456.31;;;16.67;100.00
40708;BME280;26392;42.696;23.350;2023-06-04T00:44:58;95455.69;;;16.75;100.00
40708;BME280;26392;42.696;23.350;2023-06-04T00:47:23;95449.09;;;16.71;100.00
40708;BME280;26392;42.696;23.350;2023-06-04T00:49:49;95465.84;;;16.74;100.00
40708;BME280;26392;42.696;23.350;2023-06-04T00:52:15;95455.63;;;16.80;100.00
40708;BME280;26392;42.696;23.350;2023-06-04T00:54:41;95454.84;;;16.74;100.00
40708;BME280;26392;42.696;23.350;2023-06-04T00:57:07;95463.56;;;16.87;100.00
40708;BME280;26392;42.696;23.350;2023-06-04T00:59:35;95453.16;;;16.84;100.00
40708;BME280;26392;42.696;23.350;2023-06-04T01:02:12;95460.28;;;16.85;100.00
40708;BME280;26392;42.696;23.350;2023-06-04T01:07:27;95439.44;;;16.73;100.00
40708;BME280;26392;42.696;23.350;2023-06-04T01:09:55;95458.66;;;16.84;100.00
40708;BME280;26392;42.696;23.350;2023-06-04T01:12:21;95461.69;;;16.82;100.00
40708;BME280;26392;42.696;23.350;2023-06-04T01:14:47;95458.38;;;16.80;100.00
40708;BME280;26392;42.696;23.350;2023-06-04T01:17:25;95451.81;;;16.76;100.00
40708;BME280;26392;42.696;23.350;2023-06-04T01:20:21;95455.41;;;16.71;100.00
40708;BME280;26392;42.696;23.350;2023-06-04T01:27:59;95452.72;;;16.66;100.00
40708;BME280;26392;42.696;23.350;2023-06-04T01:30:32;95454.41;;;16.62;100.00
40708;BME280;26392;42.696;23.350;2023-06-04T01:33:02;95462.75;;;16.52;100.00
40708;BME280;26392;42.696;23.350;2023-06-04T01:35:28;95464.66;;;16.56;100.00
40708;BME280;26392;42.696;23.350;2023-06-04T01:37:54;95472.31;;;16.60;100.00
40708;BME280;26392;42.696;23.350;2023-06-04T01:40:21;95470.09;;;16.62;100.00
40708;BME280;26392;42.696;23.350;2023-06-04T01:42:46;95477.19;;;16.68;100.00
40708;BME280;26392;42.696;23.350;2023-06-04T01:45:12;95476.97;;;16.64;100.00
40708;BME280;26392;42.696;23.350;2023-06-04T01:47:37;95475.31;;;16.63;100.00
40708;BME280;26392;42.696;23.350;2023-06-04T01:50:05;95469.22;;;16.66;100.00
40708;BME280;26392;42.696;23.350;2023-06-04T01:52:38;95466.81;;;16.60;100.00
40708;BME280;26392;42.696;23.350;2023-06-04T01:55:05;95477.19;;;16.68;100.00
40708;BME280;26392;42.696;23.350;2023-06-04T01:57:32;95476.38;;;16.67;100.00
40708;BME280;26392;42.696;23.350;2023-06-04T01:59:58;95479.72;;;16.64;100.00
40708;BME280;26392;42.696;23.350;2023-06-04T02:02:24;95485.84;;;16.56;100.00
40708;BME280;26392;42.696;23.350;2023-06-04T02:04:50;95480.00;;;16.63;100.00
40708;BME280;26392;42.696;23.350;2023-06-04T02:07:17;95468.75;;;16.59;100.00
40708;BME280;26392;42.696;23.350;2023-06-04T02:09:46;95491.22;;;16.66;100.00
40708;BME280;26392;42.696;23.350;2023-06-04T02:12:12;95486.25;;;16.68;100.00
40708;BME280;26392;42.696;23.350;2023-06-04T02:14:37;95476.97;;;16.64;100.00
40708;BME280;26392;42.696;23.350;2023-06-04T02:17:03;95492.31;;;16.70;100.00
40708;BME280;26392;42.696;23.350;2023-06-04T02:19:30;95489.00;;;16.68;100.00
40708;BME280;26392;42.696;23.350;2023-06-04T02:21:58;95487.94;;;16.69;100.00
40708;BME280;26392;42.696;23.350;2023-06-04T02:24:24;95491.50;;;16.70;100.00
40708;BME280;26392;42.696;23.350;2023-06-04T02:26:49;95497.63;;;16.62;100.00
40708;BME280;26392;42.696;23.350;2023-06-04T02:29:14;95498.16;;;16.64;100.00
40708;BME280;26392;42.696;23.350;2023-06-04T02:31:40;95506.09;;;16.65;100.00
40708;BME280;26392;42.696;23.350;2023-06-04T02:34:05;95504.72;;;16.68;100.00
40708;BME280;26392;42.696;23.350;2023-06-04T02:36:31;95508.81;;;16.70;100.00
40708;BME280;26392;42.696;23.350;2023-06-04T02:38:56;95510.16;;;16.73;100.00
40708;BME280;26392;42.696;23.350;2023-06-04T02:41:23;95497.81;;;16.70;100.00
40708;BME280;26392;42.696;23.350;2023-06-04T02:43:49;95508.50;;;16.77;100.00
40708;BME280;26392;42.696;23.350;2023-06-04T02:46:14;95514.25;;;16.81;100.00
40708;BME280;26392;42.696;23.350;2023-06-04T02:48:40;95504.66;;;16.78;100.00
40708;BME280;26392;42.696;23.350;2023-06-04T02:51:05;95526.91;;;16.82;100.00
40708;BME280;26392;42.696;23.350;2023-06-04T02:53:35;95520.88;;;16.74;100.00
40708;BME280;26392;42.696;23.350;2023-06-04T02:56:00;95534.63;;;16.80;100.00
40708;BME280;26392;42.696;23.350;2023-06-04T02:58:26;95526.91;;;16.82;100.00
40708;BME280;26392;42.696;23.350;2023-06-04T03:00:52;95525.72;;;16.88;100.00
40708;BME280;26392;42.696;23.350;2023-06-04T03:03:18;95532.34;;;16.87;100.00
40708;BME280;26392;42.696;23.350;2023-06-04T03:05:43;95533.44;;;16.86;100.00
40708;BME280;26392;42.696;23.350;2023-06-04T03:08:09;95539.44;;;16.93;100.00
40708;BME280;26392;42.696;23.350;2023-06-04T03:10:34;95538.63;;;16.92;100.00
40708;BME280;26392;42.696;23.350;2023-06-04T03:13:00;95536.13;;;16.96;100.00
40708;BME280;26392;42.696;23.350;2023-06-04T03:15:25;95509.81;;;16.85;100.00
40708;BME280;26392;42.696;23.350;2023-06-04T03:17:51;95532.78;;;16.99;100.00
40708;BME280;26392;42.696;23.350;2023-06-04T03:20:17;95529.03;;;16.90;100.00
40708;BME280;26392;42.696;23.350;2023-06-04T03:22:42;95538.06;;;16.95;100.00
40708;BME280;26392;42.696;23.350;2023-06-04T03:25:08;95528.72;;;16.91;100.00
40708;BME280;26392;42.696;23.350;2023-06-04T03:27:34;95532.81;;;16.94;100.00
40708;BME280;26392;42.696;23.350;2023-06-04T03:30:00;95541.06;;;16.94;100.00
40708;BME280;26392;42.696;23.350;2023-06-04T03:32:25;95541.06;;;16.94;100.00
40708;BME280;26392;42.696;23.350;2023-06-04T03:34:50;95548.47;;;16.98;100.00
40708;BME280;26392;42.696;23.350;2023-06-04T03:37:19;95549.41;;;16.89;100.00
40708;BME280;26392;42.696;23.350;2023-06-04T03:39:44;95551.72;;;16.71;100.00
40708;BME280;26392;42.696;23.350;2023-06-04T03:42:10;95555.00;;;16.73;100.00
40708;BME280;26392;42.696;23.350;2023-06-04T03:44:35;95551.66;;;16.82;100.00
40708;BME280;26392;42.696;23.350;2023-06-04T03:47:01;95560.50;;;16.78;100.00
40708;BME280;26392;42.696;23.350;2023-06-04T03:49:26;95554.06;;;16.88;100.00
40708;BME280;26392;42.696;23.350;2023-06-04T03:51:52;95562.03;;;16.90;100.00
40708;BME280;26392;42.696;23.350;2023-06-04T03:54:17;95566.38;;;16.96;100.00
40708;BME280;26392;42.696;23.350;2023-06-04T03:56:44;95552.44;;;16.87;100.00
40708;BME280;26392;42.696;23.350;2023-06-04T03:59:09;95561.50;;;16.88;100.00
40708;BME280;26392;42.696;23.350;2023-06-04T04:01:35;95559.34;;;16.85;100.00
40708;BME280;26392;42.696;23.350;2023-06-04T04:04:01;95565.41;;;16.82;100.00
40708;BME280;26392;42.696;23.350;2023-06-04T04:06:26;95569.47;;;16.89;100.00
40708;BME280;26392;42.696;23.350;2023-06-04T04:08:52;95546.75;;;16.78;100.00
40708;BME280;26392;42.696;23.350;2023-06-04T04:11:18;95570.34;;;16.85;100.00
40708;BME280;26392;42.696;23.350;2023-06-04T04:13:47;95581.31;;;16.90;100.00
40708;BME280;26392;42.696;23.350;2023-06-04T04:16:12;95580.66;;;17.03;100.00
40708;BME280;26392;42.696;23.350;2023-06-04T04:18:38;95573.16;;;17.09;100.00
40708;BME280;26392;42.696;23.350;2023-06-04T04:21:04;95578.03;;;17.17;100.00
40708;BME280;26392;42.696;23.350;2023-06-04T04:23:30;95576.56;;;17.25;100.00
40708;BME280;26392;42.696;23.350;2023-06-04T04:25:58;95572.19;;;17.23;100.00
40708;BME280;26392;42.696;23.350;2023-06-04T04:28:24;95576.16;;;17.36;100.00
40708;BME280;26392;42.696;23.350;2023-06-04T04:30:57;95570.31;;;17.43;100.00
40708;BME280;26392;42.696;23.350;2023-06-04T04:33:23;95582.69;;;17.45;100.00
40708;BME280;26392;42.696;23.350;2023-06-04T04:35:50;95566.41;;;17.49;100.00
40708;BME280;26392;42.696;23.350;2023-06-04T04:38:16;95576.78;;;17.57;100.00
40708;BME280;26392;42.696;23.350;2023-06-04T04:40:43;95565.81;;;17.52;100.00
40708;BME280;26392;42.696;23.350;2023-06-04T04:43:08;95581.41;;;17.62;100.00
40708;BME280;26392;42.696;23.350;2023-06-04T04:45:34;95582.16;;;17.67;100.00
40708;BME280;26392;42.696;23.350;2023-06-04T04:47:59;95581.63;;;17.65;100.00
40708;BME280;26392;42.696;23.350;2023-06-04T04:50:25;95573.16;;;17.62;100.00
40708;BME280;26392;42.696;23.350;2023-06-04T04:52:50;95576.28;;;17.74;100.00
40708;BME280;26392;42.696;23.350;2023-06-04T04:55:15;95579.88;;;17.75;100.00
40708;BME280;26392;42.696;23.350;2023-06-04T04:57:41;95570.31;;;17.91;100.00
40708;BME280;26392;42.696;23.350;2023-06-04T05:00:07;95580.88;;;17.84;100.00
40708;BME280;26392;42.696;23.350;2023-06-04T05:02:35;95577.47;;;17.92;100.00
40708;BME280;26392;42.696;23.350;2023-06-04T05:05:01;95582.22;;;17.86;100.00
40708;BME280;26392;42.696;23.350;2023-06-04T05:07:27;95590.28;;;17.83;100.00
40708;BME280;26392;42.696;23.350;2023-06-04T05:09:52;95582.97;;;17.92;100.00
40708;BME280;26392;42.696;23.350;2023-06-04T05:12:18;95565.41;;;17.88;100.00
40708;BME280;26392;42.696;23.350;2023-06-04T05:14:43;95591.19;;;17.97;100.00
40708;BME280;26392;42.696;23.350;2023-06-04T05:17:09;95564.44;;;17.98;100.00
40708;BME280;26392;42.696;23.350;2023-06-04T05:19:36;95586.00;;;18.15;100.00
40708;BME280;26392;42.696;23.350;2023-06-04T05:22:02;95596.63;;;18.26;100.00
40708;BME280;26392;42.696;23.350;2023-06-04T05:24:28;95597.84;;;18.34;100.00
40708;BME280;26392;42.696;23.350;2023-06-04T05:26:54;95592.06;;;18.36;100.00
40708;BME280;26392;42.696;23.350;2023-06-04T05:29:22;95592.13;;;18.30;100.00
40708;BME280;26392;42.696;23.350;2023-06-04T05:31:47;95580.66;;;18.23;100.00
40708;BME280;26392;42.696;23.350;2023-06-04T05:34:13;95593.47;;;18.33;100.00
40708;BME280;26392;42.696;23.350;2023-06-04T05:36:44;95598.31;;;18.41;100.00
40708;BME280;26392;42.696;23.350;2023-06-04T05:39:09;95593.69;;;18.55;100.00
40708;BME280;26392;42.696;23.350;2023-06-04T05:41:36;95599.56;;;18.68;100.00
40708;BME280;26392;42.696;23.350;2023-06-04T05:44:02;95598.44;;;18.74;100.00
40708;BME280;26392;42.696;23.350;2023-06-04T05:46:28;95597.81;;;18.77;100.00
40708;BME280;26392;42.696;23.350;2023-06-04T05:48:53;95594.66;;;18.65;100.00
40708;BME280;26392;42.696;23.350;2023-06-04T05:51:19;95606.97;;;18.72;100.00
40708;BME280;26392;42.696;23.350;2023-06-04T05:53:45;95614.28;;;18.63;100.00
40708;BME280;26392;42.696;23.350;2023-06-04T05:56:11;95619.94;;;18.53;100.00
40708;BME280;26392;42.696;23.350;2023-06-04T05:58:36;95614.13;;;18.54;100.00
40708;BME280;26392;42.696;23.350;2023-06-04T06:01:02;95611.59;;;18.58;100.00
40708;BME280;26392;42.696;23.350;2023-06-04T06:03:28;95617.25;;;18.67;100.00
40708;BME280;26392;42.696;23.350;2023-06-04T06:05:54;95616.50;;;18.61;100.00
40708;BME280;26392;42.696;23.350;2023-06-04T06:08:20;95626.06;;;18.50;100.00
40708;BME280;26392;42.696;23.350;2023-06-04T06:10:46;95630.84;;;18.44;100.00
40708;BME280;26392;42.696;23.350;2023-06-04T06:13:11;95626.34;;;18.48;100.00
40708;BME280;26392;42.696;23.350;2023-06-04T06:15:37;95629.44;;;18.66;100.00
40708;BME280;26392;42.696;23.350;2023-06-04T06:18:02;95631.63;;;18.88;100.00
40708;BME280;26392;42.696;23.350;2023-06-04T06:20:27;95634.13;;;19.03;100.00
40708;BME280;26392;42.696;23.350;2023-06-04T06:22:54;95625.53;;;19.05;100.00
40708;BME280;26392;42.696;23.350;2023-06-04T06:25:19;95619.25;;;19.32;100.00
40708;BME280;26392;42.696;23.350;2023-06-04T06:27:45;95619.69;;;19.39;100.00
40708;BME280;26392;42.696;23.350;2023-06-04T06:30:11;95633.03;;;19.51;100.00
40708;BME280;26392;42.696;23.350;2023-06-04T06:32:37;95637.94;;;19.54;100.00
40708;BME280;26392;42.696;23.350;2023-06-04T06:35:03;95629.75;;;19.62;100.00
40708;BME280;26392;42.696;23.350;2023-06-04T06:37:29;95636.19;;;19.44;100.00
40708;BME280;26392;42.696;23.350;2023-06-04T06:39:54;95628.56;;;19.82;100.00
40708;BME280;26392;42.696;23.350;2023-06-04T06:42:20;95635.03;;;20.19;100.00
40708;BME280;26392;42.696;23.350;2023-06-04T06:44:45;95629.81;;;20.18;100.00
40708;BME280;26392;42.696;23.350;2023-06-04T06:47:11;95632.25;;;20.19;100.00
40708;BME280;26392;42.696;23.350;2023-06-04T06:49:42;95630.19;;;20.39;100.00
40708;BME280;26392;42.696;23.350;2023-06-04T06:52:09;95629.19;;;20.34;100.00
40708;BME280;26392;42.696;23.350;2023-06-04T06:54:34;95631.63;;;20.36;100.00
40708;BME280;26392;42.696;23.350;2023-06-04T06:57:00;95637.53;;;20.71;100.00
40708;BME280;26392;42.696;23.350;2023-06-04T06:59:26;95627.88;;;20.82;100.00
40708;BME280;26392;42.696;23.350;2023-06-04T07:01:52;95628.41;;;21.07;100.00
40708;BME280;26392;42.696;23.350;2023-06-04T07:04:18;95638.66;;;21.29;100.00
40708;BME280;26392;42.696;23.350;2023-06-04T07:06:43;95626.81;;;21.37;100.00
40708;BME280;26392;42.696;23.350;2023-06-04T07:09:08;95634.16;;;21.64;100.00
40708;BME280;26392;42.696;23.350;2023-06-04T07:11:34;95640.28;;;21.83;99.13
40708;BME280;26392;42.696;23.350;2023-06-04T07:14:00;95638.25;;;22.06;97.80
40708;BME280;26392;42.696;23.350;2023-06-04T07:16:29;95650.22;;;22.16;96.08
40708;BME280;26392;42.696;23.350;2023-06-04T07:18:55;95647.88;;;22.40;94.94
40708;BME280;26392;42.696;23.350;2023-06-04T07:21:20;95649.03;;;22.39;93.40
40708;BME280;26392;42.696;23.350;2023-06-04T07:23:49;95658.38;;;22.61;90.10
40708;BME280;26392;42.696;23.350;2023-06-04T07:26:15;95660.38;;;22.69;89.13
40708;BME280;26392;42.696;23.350;2023-06-04T07:28:41;95659.03;;;22.58;90.32
40708;BME280;26392;42.696;23.350;2023-06-04T07:31:06;95655.06;;;22.32;91.84
40708;BME280;26392;42.696;23.350;2023-06-04T07:33:32;95661.63;;;22.14;95.84
40708;BME280;26392;42.696;23.350;2023-06-04T07:35:57;95663.09;;;22.11;96.96
40708;BME280;26392;42.696;23.350;2023-06-04T07:38:23;95664.34;;;22.28;95.61
40708;BME280;26392;42.696;23.350;2023-06-04T07:40:48;95661.28;;;22.38;94.85
40708;BME280;26392;42.696;23.350;2023-06-04T07:43:14;95667.84;;;22.68;91.75
40708;BME280;26392;42.696;23.350;2023-06-04T07:45:39;95663.47;;;22.76;91.33
40708;BME280;26392;42.696;23.350;2023-06-04T07:48:05;95661.38;;;22.99;89.58
40708;BME280;26392;42.696;23.350;2023-06-04T07:50:30;95662.34;;;22.77;89.01
40708;BME280;26392;42.696;23.350;2023-06-04T07:52:56;95673.91;;;22.70;91.33
40708;BME280;26392;42.696;23.350;2023-06-04T07:55:21;95669.94;;;22.54;91.19
40708;BME280;26392;42.696;23.350;2023-06-04T07:57:47;95669.53;;;22.78;90.79
40708;BME280;26392;42.696;23.350;2023-06-04T08:00:13;95673.63;;;22.81;90.35
40708;BME280;26392;42.696;23.350;2023-06-04T08:02:39;95681.03;;;23.03;88.19
40708;BME280;26392;42.696;23.350;2023-06-04T08:05:05;95672.03;;;23.14;87.19
40708;BME280;26392;42.696;23.350;2023-06-04T08:07:30;95678.41;;;23.06;85.41
40708;BME280;26392;42.696;23.350;2023-06-04T08:09:56;95676.69;;;22.70;89.17
40708;BME280;26392;42.696;23.350;2023-06-04T08:12:22;95678.00;;;22.82;89.23
40708;BME280;26392;42.696;23.350;2023-06-04T08:14:48;95673.09;;;22.78;88.80
40708;BME280;26392;42.696;23.350;2023-06-04T08:17:15;95678.41;;;22.97;88.00
40708;BME280;26392;42.696;23.350;2023-06-04T08:19:40;95671.53;;;23.30;86.61
40708;BME280;26392;42.696;23.350;2023-06-04T08:22:06;95682.97;;;23.45;83.25
40708;BME280;26392;42.696;23.350;2023-06-04T08:24:31;95676.63;;;23.28;82.63
40708;BME280;26392;42.696;23.350;2023-06-04T08:26:57;95674.78;;;23.40;84.77
40708;BME280;26392;42.696;23.350;2023-06-04T08:29:22;95673.94;;;23.66;82.30
40708;BME280;26392;42.696;23.350;2023-06-04T08:31:47;95682.28;;;23.75;82.12
40708;BME280;26392;42.696;23.350;2023-06-04T08:34:13;95685.19;;;23.96;80.31
40708;BME280;26392;42.696;23.350;2023-06-04T08:36:38;95685.84;;;24.40;78.31
40708;BME280;26392;42.696;23.350;2023-06-04T08:39:04;95682.81;;;24.62;76.16
40708;BME280;26392;42.696;23.350;2023-06-04T08:41:34;95685.31;;;24.85;73.32
40708;BME280;26392;42.696;23.350;2023-06-04T08:44:05;95680.44;;;24.73;73.21
40708;BME280;26392;42.696;23.350;2023-06-04T08:46:32;95689.16;;;24.71;73.89
40708;BME280;26392;42.696;23.350;2023-06-04T08:49:00;95689.06;;;24.59;74.26
40708;BME280;26392;42.696;23.350;2023-06-04T08:51:32;95693.19;;;24.83;73.92
40708;BME280;26392;42.696;23.350;2023-06-04T08:53:59;95690.44;;;24.74;70.28
40708;BME280;26392;42.696;23.350;2023-06-04T08:56:25;95699.41;;;24.50;70.45
40708;BME280;26392;42.696;23.350;2023-06-04T08:58:51;95692.72;;;24.51;72.87
40708;BME280;26392;42.696;23.350;2023-06-04T09:01:18;95707.13;;;24.83;73.09
40708;BME280;26392;42.696;23.350;2023-06-04T09:03:44;95695.66;;;24.75;70.82
40708;BME280;26392;42.696;23.350;2023-06-04T09:06:10;95711.41;;;24.33;70.97
40708;BME280;26392;42.696;23.350;2023-06-04T09:08:37;95705.25;;;24.19;72.72
40708;BME280;26392;42.696;23.350;2023-06-04T09:11:08;95702.38;;;23.98;75.63
40708;BME280;26392;42.696;23.350;2023-06-04T09:13:35;95702.94;;;24.29;73.43
40708;BME280;26392;42.696;23.350;2023-06-04T09:16:02;95711.03;;;24.05;72.94
40708;BME280;26392;42.696;23.350;2023-06-04T09:18:28;95704.13;;;24.11;71.81
40708;BME280;26392;42.696;23.350;2023-06-04T09:21:04;95709.41;;;24.04;73.28
40708;BME280;26392;42.696;23.350;2023-06-04T09:23:51;95707.72;;;24.59;69.99
40708;BME280;26392;42.696;23.350;2023-06-04T09:26:16;95708.22;;;25.11;65.80
40708;BME280;26392;42.696;23.350;2023-06-04T09:28:43;95694.66;;;25.31;63.58
40708;BME280;26392;42.696;23.350;2023-06-04T09:31:18;95693.31;;;25.37;60.98
40708;BME280;26392;42.696;23.350;2023-06-04T09:33:46;95694.06;;;25.46;62.22
40708;BME280;26392;42.696;23.350;2023-06-04T09:36:12;95693.19;;;25.87;59.53
40708;BME280;26392;42.696;23.350;2023-06-04T09:38:38;95700.09;;;25.48;60.91
40708;BME280;26392;42.696;23.350;2023-06-04T09:41:10;95698.88;;;25.58;61.47
40708;BME280;26392;42.696;23.350;2023-06-04T09:43:36;95687.28;;;25.68;61.04
40708;BME280;26392;42.696;23.350;2023-06-04T09:46:13;95703.25;;;26.13;59.31
40708;BME280;26392;42.696;23.350;2023-06-04T09:48:39;95699.84;;;26.07;57.50
40708;BME280;26392;42.696;23.350;2023-06-04T09:51:13;95705.28;;;26.25;58.05
40708;BME280;26392;42.696;23.350;2023-06-04T09:53:40;95696.69;;;26.30;57.00
40708;BME280;26392;42.696;23.350;2023-06-04T09:56:06;95695.22;;;26.11;57.07
40708;BME280;26392;42.696;23.350;2023-06-04T09:58:34;95691.56;;;25.86;58.01
40708;BME280;26392;42.696;23.350;2023-06-04T10:01:01;95691.84;;;25.73;58.98
40708;BME280;26392;42.696;23.350;2023-06-04T10:03:36;95687.19;;;25.43;59.68
40708;BME280;26392;42.696;23.350;2023-06-04T10:06:05;95693.38;;;25.28;60.42
40708;BME280;26392;42.696;23.350;2023-06-04T10:08:32;95694.50;;;25.06;63.04
40708;BME280;26392;42.696;23.350;2023-06-04T10:11:02;95691.16;;;25.21;60.93
40708;BME280;26392;42.696;23.350;2023-06-04T10:13:30;95687.06;;;25.19;59.87
40708;BME280;26392;42.696;23.350;2023-06-04T10:15:57;95685.75;;;24.87;64.59
40708;BME280;26392;42.696;23.350;2023-06-04T10:18:24;95682.72;;;25.00;63.92
40708;BME280;26392;42.696;23.350;2023-06-04T10:20:53;95688.50;;;25.46;60.99
40708;BME280;26392;42.696;23.350;2023-06-04T10:23:20;95678.69;;;25.73;59.33
40708;BME280;26392;42.696;23.350;2023-06-04T10:25:49;95678.22;;;25.92;59.44
40708;BME280;26392;42.696;23.350;2023-06-04T10:28:18;95680.88;;;25.88;58.06
40708;BME280;26392;42.696;23.350;2023-06-04T10:30:44;95680.91;;;26.13;57.45
40708;BME280;26392;42.696;23.350;2023-06-04T10:33:10;95681.59;;;25.98;57.49
40708;BME280;26392;42.696;23.350;2023-06-04T10:35:36;95675.75;;;25.36;58.86
40708;BME280;26392;42.696;23.350;2023-06-04T10:38:12;95679.38;;;25.16;59.30
40708;BME280;26392;42.696;23.350;2023-06-04T10:40:39;95687.38;;;25.17;61.15
40708;BME280;26392;42.696;23.350;2023-06-04T10:43:09;95672.22;;;25.27;62.38
40708;BME280;26392;42.696;23.350;2023-06-04T10:45:35;95673.56;;;25.63;60.74
40708;BME280;26392;42.696;23.350;2023-06-04T10:48:06;95678.97;;;25.80;59.11
40708;BME280;26392;42.696;23.350;2023-06-04T10:50:33;95674.94;;;25.36;58.99
40708;BME280;26392;42.696;23.350;2023-06-04T10:52:59;95674.13;;;25.35;59.68
40708;BME280;26392;42.696;23.350;2023-06-04T10:55:28;95671.00;;;25.37;59.10
40708;BME280;26392;42.696;23.350;2023-06-04T10:58:03;95674.00;;;25.65;57.37
40708;BME280;26392;42.696;23.350;2023-06-04T11:00:42;95670.00;;;25.75;57.38
40708;BME280;26392;42.696;23.350;2023-06-04T11:03:37;95667.97;;;25.96;56.63
40708;BME280;26392;42.696;23.350;2023-06-04T11:06:02;95673.56;;;25.96;55.92
40708;BME280;26392;42.696;23.350;2023-06-04T11:08:39;95672.34;;;25.85;57.73
40708;BME280;26392;42.696;23.350;2023-06-04T11:11:11;95667.63;;;25.85;57.15
40708;BME280;26392;42.696;23.350;2023-06-04T11:13:37;95663.56;;;25.95;58.42
40708;BME280;26392;42.696;23.350;2023-06-04T11:16:14;95663.81;;;26.15;55.88
40708;BME280;26392;42.696;23.350;2023-06-04T11:18:40;95676.38;;;26.21;55.24
40708;BME280;26392;42.696;23.350;2023-06-04T11:21:06;95675.78;;;26.03;54.65
40708;BME280;26392;42.696;23.350;2023-06-04T11:23:33;95675.47;;;26.17;55.06
40708;BME280;26392;42.696;23.350;2023-06-04T11:25:58;95659.06;;;25.82;56.57
40708;BME280;26392;42.696;23.350;2023-06-04T11:28:24;95659.91;;;25.82;55.53
40708;BME280;26392;42.696;23.350;2023-06-04T11:31:00;95656.78;;;25.84;56.29
40708;BME280;26392;42.696;23.350;2023-06-04T11:33:41;95681.16;;;25.75;54.59
40708;BME280;26392;42.696;23.350;2023-06-04T11:36:07;95669.38;;;25.36;56.45
40708;BME280;26392;42.696;23.350;2023-06-04T11:38:33;95646.03;;;25.40;57.00
40708;BME280;26392;42.696;23.350;2023-06-04T11:40:59;95667.06;;;25.38;58.45
40708;BME280;26392;42.696;23.350;2023-06-04T11:43:25;95664.19;;;25.47;59.05
40708;BME280;26392;42.696;23.350;2023-06-04T11:45:54;95662.09;;;25.01;61.44
40708;BME280;26392;42.696;23.350;2023-06-04T11:48:20;95662.66;;;24.65;62.82
40708;BME280;26392;42.696;23.350;2023-06-04T11:50:45;95669.09;;;24.57;63.80
40708;BME280;26392;42.696;23.350;2023-06-04T11:53:11;95661.25;;;24.50;62.19
40708;BME280;26392;42.696;23.350;2023-06-04T11:55:38;95667.47;;;24.47;63.68
40708;BME280;26392;42.696;23.350;2023-06-04T11:58:04;95670.13;;;24.44;64.73
40708;BME280;26392;42.696;23.350;2023-06-04T12:00:30;95669.41;;;24.08;67.57
40708;BME280;26392;42.696;23.350;2023-06-04T12:02:56;95677.28;;;24.15;67.17
40708;BME280;26392;42.696;23.350;2023-06-04T12:05:30;95673.22;;;24.04;67.95
40708;BME280;26392;42.696;23.350;2023-06-04T12:08:07;95680.16;;;23.72;69.98
40708;BME280;26392;42.696;23.350;2023-06-04T12:10:42;95675.41;;;23.63;69.61
40708;BME280;26392;42.696;23.350;2023-06-04T12:13:08;95678.34;;;23.84;70.92
40708;BME280;26392;42.696;23.350;2023-06-04T12:15:33;95682.41;;;23.96;68.63
40708;BME280;26392;42.696;23.350;2023-06-04T12:17:59;95669.31;;;23.96;69.50
40708;BME280;26392;42.696;23.350;2023-06-04T12:20:40;95678.75;;;24.12;67.90
40708;BME280;26392;42.696;23.350;2023-06-04T12:23:07;95687.75;;;24.18;64.06
40708;BME280;26392;42.696;23.350;2023-06-04T12:25:34;95682.91;;;23.98;63.31
40708;BME280;26392;42.696;23.350;2023-06-04T12:28:00;95681.78;;;23.90;65.32
40708;BME280;26392;42.696;23.350;2023-06-04T12:30:39;95684.41;;;23.86;67.31
40708;BME280;26392;42.696;23.350;2023-06-04T12:33:06;95674.59;;;23.63;70.17
40708;BME280;26392;42.696;23.350;2023-06-04T12:35:31;95684.75;;;23.76;71.98
40708;BME280;26392;42.696;23.350;2023-06-04T12:37:57;95677.16;;;23.94;70.26
40708;BME280;26392;42.696;23.350;2023-06-04T12:40:22;95665.78;;;23.78;70.13
40708;BME280;26392;42.696;23.350;2023-06-04T12:42:50;95672.97;;;23.71;70.72
40708;BME280;26392;42.696;23.350;2023-06-04T12:45:15;95674.13;;;23.78;71.36
40708;BME280;26392;42.696;23.350;2023-06-04T12:47:41;95679.47;;;23.83;69.88
40708;BME280;26392;42.696;23.350;2023-06-04T12:50:07;95671.34;;;23.70;69.80
40708;BME280;26392;42.696;23.350;2023-06-04T12:52:33;95674.94;;;23.79;69.53